createdAt,value
2022-08-08T00:00:56.787Z,1008.7
2022-08-08T00:01:52.824Z,1008.8
2022-08-08T00:02:31.721Z,1008.7
2022-08-08T00:03:31.291Z,1008.7
2022-08-08T00:04:27.944Z,1008.7
2022-08-08T00:05:43.612Z,1008.7
2022-08-08T00:06:34.114Z,1008.7
2022-08-08T00:07:30.367Z,1008.7
2022-08-08T00:08:31.495Z,1008.7
2022-08-08T00:09:33.372Z,1008.7
2022-08-08T00:10:35.352Z,1008.7
2022-08-08T00:11:46.252Z,1008.7
2022-08-08T00:12:37.393Z,1008.7
2022-08-08T00:14:14.729Z,1008.7
2022-08-08T00:14:48.933Z,1008.6
2022-08-08T00:15:56.305Z,1008.7
2022-08-08T00:16:41.432Z,1008.7
2022-08-08T00:17:58.808Z,1008.7
2022-08-08T00:18:43.628Z,1008.7
2022-08-08T00:19:46.656Z,1008.7
2022-08-08T00:20:49.397Z,1008.6
2022-08-08T00:21:48.353Z,1008.6
2022-08-08T00:22:49.329Z,1008.6
2022-08-08T00:23:51.089Z,1008.6
2022-08-08T00:24:51.392Z,1008.6
2022-08-08T00:25:52.515Z,1008.7
2022-08-08T00:26:53.392Z,1008.7
2022-08-08T00:27:54.412Z,1008.7
2022-08-08T00:28:55.374Z,1008.7
2022-08-08T00:29:56.411Z,1008.7
2022-08-08T00:31:00.339Z,1008.7
2022-08-08T00:32:15.901Z,1008.7
2022-08-08T00:32:59.472Z,1008.7
2022-08-08T00:34:17.071Z,1008.7
2022-08-08T00:35:04.005Z,1008.7
2022-08-08T00:36:03.391Z,1008.7
2022-08-08T00:37:07.994Z,1008.7
2022-08-08T00:38:05.420Z,1008.8
2022-08-08T00:39:36.100Z,1008.8
2022-08-08T00:41:08.521Z,1008.8
2022-08-08T00:41:14.630Z,1008.7
2022-08-08T00:42:14.013Z,1008.7
2022-08-08T00:43:12.043Z,1008.7
2022-08-08T00:44:11.613Z,1008.7
2022-08-08T00:45:21.160Z,1008.7
2022-08-08T00:46:16.292Z,1008.7
2022-08-08T00:47:19.828Z,1008.7
2022-08-08T00:48:29.599Z,1008.7
2022-08-08T00:49:17.244Z,1008.8
2022-08-08T00:50:17.511Z,1008.8
2022-08-08T00:51:18.452Z,1008.8
2022-08-08T00:52:20.519Z,1008.8
2022-08-08T00:53:20.380Z,1008.8
2022-08-08T00:54:21.372Z,1008.2
2022-08-08T00:55:36.412Z,1008.6
2022-08-08T00:56:23.906Z,1008.7
2022-08-08T00:57:29.765Z,1008.7
2022-08-08T00:58:30.499Z,1008.8
2022-08-08T00:59:43.295Z,1008.7
2022-08-08T01:03:57.812Z,1008.8
2022-08-08T01:04:51.341Z,1008.7
2022-08-08T01:05:59.862Z,1008.8
2022-08-08T01:06:56.183Z,1008.8
2022-08-08T01:07:55.152Z,1008.8
2022-08-08T01:08:55.415Z,1008.8
2022-08-08T01:09:56.374Z,1008.7
2022-08-08T01:10:57.394Z,1008.7
2022-08-08T01:11:58.424Z,1008.7
2022-08-08T01:12:59.456Z,1008.8
2022-08-08T01:14:00.463Z,1008.7
2022-08-08T01:15:01.418Z,1008.7
2022-08-08T01:16:02.414Z,1008.7
2022-08-08T01:17:03.395Z,1008.8
2022-08-08T01:18:04.394Z,1008.7
2022-08-08T01:19:11.806Z,1008.8
2022-08-08T01:20:07.454Z,1008.8
2022-08-08T01:21:08.634Z,1008.8
2022-08-08T01:22:11.825Z,1008.8
2022-08-08T01:23:16.000Z,1008.8
2022-08-08T01:24:13.962Z,1008.8
2022-08-08T01:25:14.201Z,1008.8
2022-08-08T01:26:13.433Z,1008.8
2022-08-08T01:27:16.022Z,1008.8
2022-08-08T01:28:15.933Z,1008.7
2022-08-08T01:29:16.510Z,1008.8
2022-08-08T01:30:18.394Z,1008.7
2022-08-08T01:32:02.842Z,1008.7
2022-08-08T01:32:21.135Z,1008.8
2022-08-08T01:33:23.624Z,1008.7
2022-08-08T01:34:22.434Z,1008.7
2022-08-08T01:35:29.493Z,1008.7
2022-08-08T01:36:24.474Z,1008.7
2022-08-08T01:37:37.159Z,1008.7
2022-08-08T01:38:26.477Z,1008.7
2022-08-08T01:39:28.170Z,1008.8
2022-08-08T01:40:28.475Z,1008.7
2022-08-08T01:41:34.175Z,1008.7
2022-08-08T01:42:35.448Z,1008.7
2022-08-08T01:43:34.884Z,1008.7
2022-08-08T01:44:32.589Z,1008.7
2022-08-08T01:45:35.396Z,1008.9
2022-08-08T01:46:36.435Z,1008.7
2022-08-08T01:48:03.709Z,1008.7
2022-08-08T01:48:38.393Z,1008.7
2022-08-08T01:49:39.373Z,1008.7
2022-08-08T01:50:42.767Z,1008.8
2022-08-08T01:52:02.664Z,1008.7
2022-08-08T01:53:03.954Z,1008.6
2022-08-08T01:54:12.625Z,1008.7
2022-08-08T01:55:18.423Z,1008.7
2022-08-08T01:56:27.930Z,1008.7
2022-08-08T01:56:46.893Z,1008.7
2022-08-08T01:58:04.294Z,1008.7
2022-08-08T01:58:49.723Z,1008.7
2022-08-08T02:00:01.301Z,1008.7
2022-08-08T02:00:57.691Z,1008.2
2022-08-08T02:01:54.906Z,1008.6
2022-08-08T02:02:53.489Z,1008.7
2022-08-08T02:03:57.958Z,1008.7
2022-08-08T02:04:55.414Z,1008.6
2022-08-08T02:05:58.690Z,1008.6
2022-08-08T02:06:57.475Z,1008.6
2022-08-08T02:07:58.434Z,1008.6
2022-08-08T02:08:59.525Z,1008.7
2022-08-08T02:10:02.986Z,1008.6
2022-08-08T02:11:01.435Z,1008.6
2022-08-08T02:12:02.474Z,1008.6
2022-08-08T02:13:04.436Z,1008.7
2022-08-08T02:14:05.475Z,1008.7
2022-08-08T02:15:11.334Z,1008.6
2022-08-08T02:16:07.497Z,1008.6
2022-08-08T02:17:10.507Z,1008.7
2022-08-08T02:18:10.684Z,1008.6
2022-08-08T02:19:27.077Z,1008.6
2022-08-08T02:20:16.070Z,1008.6
2022-08-08T02:21:13.625Z,1008.7
2022-08-08T02:22:14.474Z,1008.7
2022-08-08T02:23:15.946Z,1008.7
2022-08-08T02:24:16.434Z,1008.7
2022-08-08T02:25:17.494Z,1008.8
2022-08-08T02:26:18.455Z,1008.8
2022-08-08T02:27:19.474Z,1008.8
2022-08-08T02:28:20.457Z,1008.8
2022-08-08T02:29:21.435Z,1008.8
2022-08-08T02:30:24.722Z,1008.9
2022-08-08T02:31:43.781Z,1008.9
2022-08-08T02:32:24.460Z,1008.9
2022-08-08T02:33:25.474Z,1008.8
2022-08-08T02:34:27.403Z,1008.8
2022-08-08T02:35:28.181Z,1008.9
2022-08-08T02:36:28.680Z,1008.9
2022-08-08T02:37:51.568Z,1008.9
2022-08-08T02:38:31.455Z,1008.9
2022-08-08T02:39:40.206Z,1009
2022-08-08T02:40:34.549Z,1008.9
2022-08-08T02:41:58.202Z,1008.9
2022-08-08T02:42:38.594Z,1008.8
2022-08-08T02:44:36.309Z,1008.8
2022-08-08T02:44:49.592Z,1008.8
2022-08-08T02:45:40.253Z,1008.8
2022-08-08T02:46:41.470Z,1008.9
2022-08-08T02:47:46.892Z,1008.9
2022-08-08T02:48:43.494Z,1008.9
2022-08-08T02:49:48.419Z,1008.9
2022-08-08T02:50:47.189Z,1008.8
2022-08-08T02:51:55.532Z,1008.9
2022-08-08T02:52:50.138Z,1009
2022-08-08T02:53:50.680Z,1008.9
2022-08-08T02:54:50.534Z,1008.9
2022-08-08T02:55:58.055Z,1009
2022-08-08T02:56:52.433Z,1009
2022-08-08T02:57:53.481Z,1009
2022-08-08T02:58:54.436Z,1009
2022-08-08T02:59:57.239Z,1009
2022-08-08T03:00:56.544Z,1009
2022-08-08T03:01:57.540Z,1009
2022-08-08T03:02:58.494Z,1009
2022-08-08T03:05:02.237Z,1009
2022-08-08T03:05:09.267Z,1009
2022-08-08T03:06:01.524Z,1009
2022-08-08T03:07:02.473Z,1009
2022-08-08T03:08:03.474Z,1009
2022-08-08T03:09:04.454Z,1009
2022-08-08T03:10:05.454Z,1009
2022-08-08T03:11:06.522Z,1009
2022-08-08T03:12:08.255Z,1009
2022-08-08T03:13:34.283Z,1008.9
2022-08-08T03:15:55.495Z,1009
2022-08-08T03:15:55.603Z,1009
2022-08-08T03:16:13.552Z,1008.9
2022-08-08T03:17:16.149Z,1009
2022-08-08T03:18:16.474Z,1009
2022-08-08T03:19:17.757Z,1009
2022-08-08T03:20:18.494Z,1009.1
2022-08-08T03:21:19.509Z,1009
2022-08-08T03:22:48.190Z,1008.9
2022-08-08T03:23:21.456Z,1009
2022-08-08T03:24:22.454Z,1009
2022-08-08T03:25:23.772Z,1009
2022-08-08T03:26:24.534Z,1009.1
2022-08-08T03:27:26.994Z,1009.1
2022-08-08T03:28:26.502Z,1009.1
2022-08-08T03:29:38.317Z,1009.1
2022-08-08T03:30:28.477Z,1009.1
2022-08-08T03:31:30.438Z,1009.1
2022-08-08T03:32:30.829Z,1009
2022-08-08T03:33:54.531Z,1009.1
2022-08-08T03:34:32.455Z,1009.1
2022-08-08T03:35:33.494Z,1009.1
2022-08-08T03:36:34.474Z,1009.1
2022-08-08T03:38:00.346Z,1009.1
2022-08-08T03:38:55.227Z,1009.1
2022-08-08T03:39:46.032Z,1009.1
2022-08-08T03:40:38.628Z,1008.4
2022-08-08T03:42:11.679Z,1008.9
2022-08-08T03:42:40.688Z,1009
2022-08-08T03:43:41.574Z,1009.1
2022-08-08T03:44:44.877Z,1009.1
2022-08-08T03:46:03.582Z,1009.1
2022-08-08T03:46:44.494Z,1009.1
2022-08-08T03:47:47.020Z,1009.2
2022-08-08T03:49:10.205Z,1009.1
2022-08-08T03:49:57.137Z,1009.2
2022-08-08T03:50:48.679Z,1009.2
2022-08-08T03:51:51.115Z,1009.2
2022-08-08T03:52:50.534Z,1009.2
2022-08-08T03:53:51.494Z,1009.2
2022-08-08T03:55:02.784Z,1009.2
2022-08-08T03:55:57.011Z,1009.2
2022-08-08T03:56:54.521Z,1009.1
2022-08-08T03:58:32.678Z,1009.1
2022-08-08T03:58:56.740Z,1009.1
2022-08-08T04:00:02.834Z,1009.1
2022-08-08T04:01:01.841Z,1009.1
2022-08-08T04:02:13.507Z,1009.2
2022-08-08T04:03:01.210Z,1009.1
2022-08-08T04:04:02.203Z,1009.2
2022-08-08T04:05:02.593Z,1009.2
2022-08-08T04:06:03.573Z,1009.2
2022-08-08T04:07:05.555Z,1009.1
2022-08-08T04:08:07.514Z,1009.2
2022-08-08T04:09:10.921Z,1009.2
2022-08-08T04:10:10.082Z,1009.2
2022-08-08T04:11:17.261Z,1008.9
2022-08-08T04:12:11.700Z,1009.1
2022-08-08T04:13:17.754Z,1009.1
2022-08-08T04:14:33.760Z,1009.1
2022-08-08T04:15:14.574Z,1009.2
2022-08-08T04:16:18.447Z,1008.9
2022-08-08T04:17:22.992Z,1009.1
2022-08-08T04:18:19.494Z,1009.1
2022-08-08T04:19:23.182Z,1009.1
2022-08-08T04:20:21.555Z,1009.1
2022-08-08T04:21:23.170Z,1009.2
2022-08-08T04:22:23.957Z,1009.1
2022-08-08T04:23:24.474Z,1009.2
2022-08-08T04:24:28.373Z,1009.2
2022-08-08T04:25:28.045Z,1009.2
2022-08-08T04:26:27.486Z,1009.2
2022-08-08T04:27:43.259Z,1009.2
2022-08-08T04:28:35.770Z,1009.2
2022-08-08T04:29:33.533Z,1009.2
2022-08-08T04:30:36.359Z,1009.2
2022-08-08T04:31:57.423Z,1009.2
2022-08-08T04:32:33.948Z,1009.2
2022-08-08T04:33:38.701Z,1009.2
2022-08-08T04:34:42.732Z,1009.2
2022-08-08T04:35:39.777Z,1009.2
2022-08-08T04:36:37.474Z,1009.2
2022-08-08T04:37:38.515Z,1009.2
2022-08-08T04:38:42.353Z,1009.1
2022-08-08T04:39:48.603Z,1009.2
2022-08-08T04:40:51.612Z,1009.2
2022-08-08T04:41:43.475Z,1009.2
2022-08-08T04:42:46.417Z,1009.2
2022-08-08T04:43:48.830Z,1009.2
2022-08-08T04:44:47.973Z,1009.2
2022-08-08T04:45:48.461Z,1009.2
2022-08-08T04:46:52.414Z,1009.3
2022-08-08T04:47:51.554Z,1009.3
2022-08-08T04:48:52.511Z,1009.3
2022-08-08T04:49:59.225Z,1009.3
2022-08-08T04:50:55.468Z,1009.3
2022-08-08T04:51:57.117Z,1009.3
2022-08-08T04:52:58.774Z,1009.3
2022-08-08T04:54:37.493Z,1009.3
2022-08-08T04:54:59.535Z,1009.3
2022-08-08T04:56:00.555Z,1009.4
2022-08-08T04:57:01.537Z,1009.3
2022-08-08T04:58:02.579Z,1009.4
2022-08-08T04:59:03.474Z,1009.4
2022-08-08T05:00:04.602Z,1009.4
2022-08-08T05:01:06.005Z,1009.3
2022-08-08T05:02:06.646Z,1009.4
2022-08-08T05:03:07.656Z,1009.4
2022-08-08T05:04:12.758Z,1009.4
2022-08-08T05:05:16.017Z,1009.4
2022-08-08T05:06:18.539Z,1009.4
2022-08-08T05:07:14.999Z,1009.4
2022-08-08T05:08:16.078Z,1009.4
2022-08-08T05:09:17.603Z,1009.4
2022-08-08T05:10:19.628Z,1009.5
2022-08-08T05:11:22.960Z,1009.2
2022-08-08T05:12:22.594Z,1009.4
2022-08-08T05:13:23.534Z,1009.5
2022-08-08T05:14:24.518Z,1009.5
2022-08-08T05:15:25.556Z,1009.5
2022-08-08T05:16:49.158Z,1009.5
2022-08-08T05:17:28.622Z,1009.5
2022-08-08T05:18:29.660Z,1009.5
2022-08-08T05:20:04.482Z,1009.6
2022-08-08T05:20:31.495Z,1009.5
2022-08-08T05:21:43.478Z,1009.5
2022-08-08T05:22:33.722Z,1009.5
2022-08-08T05:23:41.043Z,1009.5
2022-08-08T05:24:37.276Z,1009.5
2022-08-08T05:25:38.919Z,1009.6
2022-08-08T05:26:38.515Z,1009.6
2022-08-08T05:27:41.273Z,1009.5
2022-08-08T05:28:48.583Z,1009.5
2022-08-08T05:29:41.495Z,1009.5
2022-08-08T05:30:47.062Z,1009.5
2022-08-08T05:32:04.741Z,1009.5
2022-08-08T05:32:44.788Z,1009.6
2022-08-08T05:33:48.605Z,1009.6
2022-08-08T05:34:46.635Z,1009.6
2022-08-08T05:35:54.067Z,1009.6
2022-08-08T05:36:48.634Z,1009.5
2022-08-08T05:37:53.618Z,1009.6
2022-08-08T05:38:51.537Z,1009.7
2022-08-08T05:39:53.149Z,1009.6
2022-08-08T05:40:57.738Z,1009.6
2022-08-08T05:41:54.751Z,1009.4
2022-08-08T05:42:55.535Z,1009.5
2022-08-08T05:44:02.569Z,1009.6
2022-08-08T05:45:00.494Z,1009.6
2022-08-08T05:46:02.898Z,1009.6
2022-08-08T05:47:02.864Z,1009.6
2022-08-08T05:48:01.422Z,1009.6
2022-08-08T05:49:01.615Z,1009.6
2022-08-08T05:50:02.698Z,1009.6
2022-08-08T05:51:13.179Z,1009.6
2022-08-08T05:52:05.585Z,1009.6
2022-08-08T05:53:22.857Z,1009.6
2022-08-08T05:54:26.510Z,1009.6
2022-08-08T05:55:11.556Z,1009.6
2022-08-08T05:56:15.095Z,1009.7
2022-08-08T05:57:15.140Z,1009.7
2022-08-08T05:58:17.521Z,1009.6
2022-08-08T05:59:15.694Z,1009.7
2022-08-08T06:00:23.309Z,1009.7
2022-08-08T06:01:50.725Z,1009.7
2022-08-08T06:02:19.522Z,1009.7
2022-08-08T06:03:22.944Z,1009.7
2022-08-08T06:04:23.136Z,1009.7
2022-08-08T06:05:33.424Z,1009.1
2022-08-08T06:06:23.607Z,1009.6
2022-08-08T06:07:24.615Z,1009.7
2022-08-08T06:08:28.496Z,1009.7
2022-08-08T06:09:42.039Z,1009.7
2022-08-08T06:10:27.669Z,1009.8
2022-08-08T06:11:28.855Z,1009.8
2022-08-08T06:12:31.350Z,1009.8
2022-08-08T06:13:35.429Z,1009.8
2022-08-08T06:14:31.635Z,1009.8
2022-08-08T06:15:50.339Z,1009.8
2022-08-08T06:16:33.555Z,1009.8
2022-08-08T06:17:51.783Z,1009.8
2022-08-08T06:18:35.556Z,1009.8
2022-08-08T06:19:36.578Z,1009.8
2022-08-08T06:20:37.615Z,1009.9
2022-08-08T06:21:48.616Z,1009.8
2022-08-08T06:22:42.179Z,1009.8
2022-08-08T06:23:52.327Z,1009.8
2022-08-08T06:24:46.996Z,1009.8
2022-08-08T06:26:36.465Z,1009.8
2022-08-08T06:26:50.740Z,1009.8
2022-08-08T06:27:48.018Z,1009.8
2022-08-08T06:28:45.654Z,1009.8
2022-08-08T06:29:49.653Z,1009.8
2022-08-08T06:30:48.655Z,1009.8
2022-08-08T06:31:52.677Z,1009.8
2022-08-08T06:32:52.557Z,1009.8
2022-08-08T06:34:26.894Z,1009.8
2022-08-08T06:35:11.758Z,1009.8
2022-08-08T06:36:08.342Z,1009.8
2022-08-08T06:36:55.549Z,1009.8
2022-08-08T06:37:57.592Z,1009.8
2022-08-08T06:38:57.636Z,1009.8
2022-08-08T06:40:00.675Z,1009.9
2022-08-08T06:40:59.638Z,1010
2022-08-08T06:42:02.453Z,1010
2022-08-08T06:43:01.598Z,1009.9
2022-08-08T06:44:02.625Z,1009.9
2022-08-08T06:45:05.322Z,1009.9
2022-08-08T06:46:08.893Z,1009.9
2022-08-08T06:47:06.695Z,1009.9
2022-08-08T06:48:07.598Z,1009.9
2022-08-08T06:49:10.962Z,1009.9
2022-08-08T06:50:09.615Z,1009.9
2022-08-08T06:51:10.635Z,1009.7
2022-08-08T06:52:11.568Z,1009.8
2022-08-08T06:53:14.405Z,1009.9
2022-08-08T06:54:13.569Z,1010
2022-08-08T06:55:16.420Z,1010
2022-08-08T06:56:16.692Z,1010
2022-08-08T06:57:16.595Z,1009.9
2022-08-08T06:58:18.648Z,1010
2022-08-08T06:59:18.616Z,1009.9
2022-08-08T07:00:29.967Z,1009.9
2022-08-08T07:02:11.666Z,1009.9
2022-08-08T07:02:28.119Z,1009.9
2022-08-08T07:03:51.793Z,1009.9
2022-08-08T07:04:36.043Z,1009.6
2022-08-08T07:05:29.752Z,1009.8
2022-08-08T07:06:28.625Z,1009.9
2022-08-08T07:07:29.944Z,1009.9
2022-08-08T07:08:30.616Z,1009.9
2022-08-08T07:09:41.822Z,1009.9
2022-08-08T07:10:32.655Z,1009.9
2022-08-08T07:11:46.350Z,1009.9
2022-08-08T07:12:34.616Z,1009.8
2022-08-08T07:13:35.615Z,1009.8
2022-08-08T07:14:36.615Z,1009.8
2022-08-08T07:15:41.229Z,1009.8
2022-08-08T07:16:50.954Z,1009.2
2022-08-08T07:17:40.480Z,1009.6
2022-08-08T07:18:41.148Z,1009.8
2022-08-08T07:19:41.637Z,1009.8
2022-08-08T07:20:46.095Z,1009.8
2022-08-08T07:21:44.501Z,1009.7
2022-08-08T07:22:46.035Z,1009.7
2022-08-08T07:23:57.762Z,1009.8
2022-08-08T07:24:48.668Z,1009.8
2022-08-08T07:25:54.360Z,1009.9
2022-08-08T07:26:52.999Z,1009.8
2022-08-08T07:28:02.946Z,1009.8
2022-08-08T07:28:53.595Z,1009.8
2022-08-08T07:29:58.980Z,1009.8
2022-08-08T07:30:55.596Z,1009.9
2022-08-08T07:31:56.581Z,1009.8
2022-08-08T07:32:59.336Z,1009.8
2022-08-08T07:33:59.283Z,1009.8
2022-08-08T07:35:00.666Z,1009.8
2022-08-08T07:36:00.619Z,1009.9
2022-08-08T07:37:01.618Z,1009.8
2022-08-08T07:38:05.263Z,1009.8
2022-08-08T07:39:03.767Z,1009.8
2022-08-08T07:40:04.793Z,1009.8
2022-08-08T07:41:06.676Z,1009.8
2022-08-08T07:42:08.560Z,1009.8
2022-08-08T07:43:10.084Z,1009.8
2022-08-08T07:44:33.570Z,1009.8
2022-08-08T07:45:13.675Z,1009.8
2022-08-08T07:46:23.240Z,1009.8
2022-08-08T07:47:15.676Z,1009.8
2022-08-08T07:48:17.642Z,1009.8
2022-08-08T07:49:18.663Z,1009.8
2022-08-08T07:50:22.069Z,1009.8
2022-08-08T07:51:23.609Z,1009.5
2022-08-08T07:52:23.302Z,1009.8
2022-08-08T07:53:24.025Z,1009.6
2022-08-08T07:54:24.259Z,1009.8
2022-08-08T07:55:28.825Z,1009.6
2022-08-08T07:56:35.271Z,1009.8
2022-08-08T07:57:26.655Z,1009.8
2022-08-08T07:58:27.696Z,1009.8
2022-08-08T07:59:28.712Z,1009.9
2022-08-08T08:00:30.675Z,1009.9
2022-08-08T08:02:34.017Z,1009.9
2022-08-08T08:02:38.161Z,1009.9
2022-08-08T08:03:41.315Z,1009.9
2022-08-08T08:04:35.991Z,1009.8
2022-08-08T08:05:36.696Z,1009.9
2022-08-08T08:06:38.778Z,1009.8
2022-08-08T08:07:39.780Z,1009.8
2022-08-08T08:08:41.806Z,1009.8
2022-08-08T08:09:41.676Z,1009.8
2022-08-08T08:10:42.655Z,1009.8
2022-08-08T08:11:51.324Z,1009.8
2022-08-08T08:12:45.716Z,1009.3
2022-08-08T08:14:06.572Z,1009.7
2022-08-08T08:14:48.618Z,1009.8
2022-08-08T08:15:49.660Z,1009.8
2022-08-08T08:16:50.981Z,1009.8
2022-08-08T08:17:55.361Z,1009.8
2022-08-08T08:18:56.379Z,1009.8
2022-08-08T08:19:55.660Z,1009.8
2022-08-08T08:20:55.615Z,1009.8
2022-08-08T08:21:58.010Z,1009.8
2022-08-08T08:22:57.730Z,1009.8
2022-08-08T08:23:59.928Z,1009.8
2022-08-08T08:24:59.676Z,1009.8
2022-08-08T08:26:00.673Z,1009.8
2022-08-08T08:27:02.665Z,1009.8
2022-08-08T08:28:03.742Z,1009.9
2022-08-08T08:29:06.039Z,1009.9
2022-08-08T08:30:08.043Z,1009.8
2022-08-08T08:31:09.753Z,1009.9
2022-08-08T08:32:11.642Z,1009.8
2022-08-08T08:33:12.656Z,1009.9
2022-08-08T08:34:13.656Z,1009.8
2022-08-08T08:35:15.040Z,1009.8
2022-08-08T08:36:18.095Z,1009.8
2022-08-08T08:37:20.324Z,1009.8
2022-08-08T08:38:19.017Z,1009.8
2022-08-08T08:39:22.835Z,1009.8
2022-08-08T08:40:20.804Z,1009.8
2022-08-08T08:41:22.550Z,1009.8
2022-08-08T08:42:29.632Z,1009.8
2022-08-08T08:43:26.625Z,1009.9
2022-08-08T08:44:24.655Z,1009.8
2022-08-08T08:45:26.445Z,1009.8
2022-08-08T08:46:26.776Z,1009.8
2022-08-08T08:47:28.072Z,1009.8
2022-08-08T08:48:28.658Z,1009.8
2022-08-08T08:49:32.005Z,1009.8
2022-08-08T08:50:32.255Z,1009.8
2022-08-08T08:51:31.675Z,1009.8
2022-08-08T08:52:32.697Z,1009.8
2022-08-08T08:53:55.587Z,1009.8
2022-08-08T08:54:35.761Z,1009.9
2022-08-08T08:55:39.349Z,1009.8
2022-08-08T08:56:38.677Z,1009.8
2022-08-08T08:57:39.717Z,1009.9
2022-08-08T08:58:41.471Z,1009.9
2022-08-08T08:59:58.568Z,1009.9
2022-08-08T09:01:03.076Z,1009.9
2022-08-08T09:01:45.547Z,1009.8
2022-08-08T09:02:44.691Z,1009.8
2022-08-08T09:03:47.304Z,1009.8
2022-08-08T09:04:49.998Z,1009.8
2022-08-08T09:05:49.016Z,1009.8
2022-08-08T09:06:50.231Z,1009.8
2022-08-08T09:07:52.076Z,1009.8
2022-08-08T09:08:51.916Z,1009.8
2022-08-08T09:09:54.997Z,1009.6
2022-08-08T09:10:53.661Z,1009.5
2022-08-08T09:12:01.829Z,1009.8
2022-08-08T09:12:55.649Z,1009.8
2022-08-08T09:13:56.684Z,1009.8
2022-08-08T09:14:57.891Z,1009.9
2022-08-08T09:16:03.689Z,1009.9
2022-08-08T09:16:59.739Z,1009.8
2022-08-08T09:18:01.069Z,1009.8
2022-08-08T09:19:01.823Z,1009.8
2022-08-08T09:21:55.453Z,1009.8
2022-08-08T09:21:55.546Z,1009.8
2022-08-08T09:22:06.301Z,1009.9
2022-08-08T09:23:05.762Z,1009.8
2022-08-08T09:24:07.696Z,1009.8
2022-08-08T09:25:09.654Z,1009.8
2022-08-08T09:26:12.573Z,1009.9
2022-08-08T09:27:14.989Z,1009.8
2022-08-08T09:28:12.736Z,1009.9
2022-08-08T09:29:22.366Z,1009.9
2022-08-08T09:30:17.228Z,1010
2022-08-08T09:31:16.770Z,1009.9
2022-08-08T09:32:17.694Z,1010
2022-08-08T09:33:55.178Z,1009.9
2022-08-08T09:34:31.830Z,1009.9
2022-08-08T09:35:20.697Z,1009.9
2022-08-08T09:36:22.548Z,1009.9
2022-08-08T09:37:57.993Z,1009.9
2022-08-08T09:38:23.815Z,1009.9
2022-08-08T09:39:24.733Z,1009.9
2022-08-08T09:40:35.853Z,1009.9
2022-08-08T09:41:26.736Z,1009.8
2022-08-08T09:42:27.737Z,1009.8
2022-08-08T09:43:41.346Z,1009.8
2022-08-08T09:44:34.131Z,1009.9
2022-08-08T09:45:55.744Z,1009.9
2022-08-08T09:46:32.031Z,1009.9
2022-08-08T09:48:02.764Z,1009.9
2022-08-08T09:48:36.375Z,1010
2022-08-08T09:49:42.006Z,1009.9
2022-08-08T09:50:35.756Z,1009.9
2022-08-08T09:51:41.631Z,1009.9
2022-08-08T09:52:54.013Z,1009.9
2022-08-08T09:53:54.435Z,1009.9
2022-08-08T09:54:40.894Z,1009.9
2022-08-08T09:56:03.976Z,1009.8
2022-08-08T09:56:44.604Z,1009.8
2022-08-08T09:57:46.435Z,1009.8
2022-08-08T09:58:45.242Z,1009.8
2022-08-08T09:59:53.437Z,1009.8
2022-08-08T10:00:50.324Z,1009.8
2022-08-08T10:01:58.914Z,1009.8
2022-08-08T10:02:48.833Z,1009.8
2022-08-08T10:03:55.688Z,1009.8
2022-08-08T10:04:51.875Z,1009.8
2022-08-08T10:05:53.819Z,1009.9
2022-08-08T10:06:54.916Z,1009.9
2022-08-08T10:07:59.675Z,1009.9
2022-08-08T10:08:58.758Z,1009.9
2022-08-08T10:10:01.607Z,1009.8
2022-08-08T10:11:00.835Z,1009.8
2022-08-08T10:12:23.287Z,1009.7
2022-08-08T10:13:05.998Z,1009.8
2022-08-08T10:14:05.995Z,1009.7
2022-08-08T10:15:17.223Z,1009.7
2022-08-08T10:16:05.777Z,1009.7
2022-08-08T10:17:30.265Z,1009.7
2022-08-08T10:18:10.339Z,1009.8
2022-08-08T10:19:08.734Z,1009.8
2022-08-08T10:20:09.735Z,1009.8
2022-08-08T10:22:11.784Z,1009.8
2022-08-08T10:23:13.137Z,1009.9
2022-08-08T10:24:28.422Z,1009.8
2022-08-08T10:25:16.748Z,1009.9
2022-08-08T10:26:26.131Z,1009.9
2022-08-08T10:27:17.737Z,1009.9
2022-08-08T10:28:21.272Z,1009.9
2022-08-08T10:29:23.123Z,1009.9
2022-08-08T10:30:56.879Z,1009.8
2022-08-08T10:31:25.317Z,1009.8
2022-08-08T10:32:24.775Z,1009.8
2022-08-08T10:33:38.102Z,1009.8
2022-08-08T10:34:27.352Z,1009.7
2022-08-08T10:36:07.936Z,1009.6
2022-08-08T10:36:30.867Z,1009.7
2022-08-08T10:37:30.797Z,1009.7
2022-08-08T10:38:32.762Z,1009.7
2022-08-08T10:39:43.741Z,1009.7
2022-08-08T10:40:34.835Z,1009.7
2022-08-08T10:41:37.330Z,1009.7
2022-08-08T10:42:37.855Z,1009.7
2022-08-08T10:43:38.774Z,1009.6
2022-08-08T10:44:39.716Z,1009.7
2022-08-08T10:45:41.284Z,1009.7
2022-08-08T10:46:41.720Z,1009.6
2022-08-08T10:47:43.502Z,1009.6
2022-08-08T10:48:57.985Z,1009.6
2022-08-08T10:50:00.977Z,1009.6
2022-08-08T10:50:45.735Z,1009.6
2022-08-08T10:51:47.626Z,1009.6
2022-08-08T10:52:47.855Z,1009.7
2022-08-08T10:53:57.074Z,1009.7
2022-08-08T10:54:49.774Z,1009.7
2022-08-08T10:55:50.778Z,1009.7
2022-08-08T10:56:52.155Z,1009.7
2022-08-08T10:57:53.915Z,1009.7
2022-08-08T10:58:55.794Z,1009.6
2022-08-08T10:59:57.783Z,1009.6
2022-08-08T11:01:01.778Z,1009.6
2022-08-08T11:01:59.825Z,1009.6
2022-08-08T11:03:00.847Z,1009.6
2022-08-08T11:04:04.512Z,1009.5
2022-08-08T11:05:05.365Z,1009.6
2022-08-08T11:06:04.728Z,1009.7
2022-08-08T11:07:05.724Z,1009.7
2022-08-08T11:08:32.005Z,1009.7
2022-08-08T11:09:09.559Z,1009.7
2022-08-08T11:10:08.814Z,1009.6
2022-08-08T11:11:31.866Z,1009.7
2022-08-08T11:12:23.829Z,1009.7
2022-08-08T11:13:31.665Z,1009.7
2022-08-08T11:14:16.490Z,1009.7
2022-08-08T11:15:16.754Z,1009.7
2022-08-08T11:16:32.759Z,1009.6
2022-08-08T11:17:58.986Z,1009.6
2022-08-08T11:18:19.740Z,1009.5
2022-08-08T11:19:20.764Z,1009.5
2022-08-08T11:20:27.193Z,1009.5
2022-08-08T11:21:22.754Z,1009.6
2022-08-08T11:22:23.791Z,1009.5
2022-08-08T11:23:24.755Z,1009.5
2022-08-08T11:24:25.764Z,1009.5
2022-08-08T11:25:43.794Z,1009.5
2022-08-08T11:26:28.102Z,1009.5
2022-08-08T11:27:29.198Z,1009.5
2022-08-08T11:28:30.963Z,1009.5
2022-08-08T11:29:41.703Z,1009.5
2022-08-08T11:30:32.855Z,1009.5
2022-08-08T11:31:43.263Z,1009.5
2022-08-08T11:32:36.435Z,1009.5
2022-08-08T11:33:52.314Z,1009.5
2022-08-08T11:34:52.387Z,1009.5
2022-08-08T11:35:42.852Z,1009.5
2022-08-08T11:36:38.774Z,1009.4
2022-08-08T11:37:39.856Z,1009.5
2022-08-08T11:38:43.897Z,1009.4
2022-08-08T11:39:41.875Z,1009.4
2022-08-08T11:40:42.903Z,1009.4
2022-08-08T11:41:43.798Z,1009.4
2022-08-08T11:42:44.756Z,1009.4
2022-08-08T11:43:45.774Z,1009.4
2022-08-08T11:44:46.735Z,1009.4
2022-08-08T11:46:07.264Z,1009.5
2022-08-08T11:46:52.516Z,1009.4
2022-08-08T11:48:02.318Z,1009.4
2022-08-08T11:48:50.795Z,1009.5
2022-08-08T11:49:52.335Z,1009.5
2022-08-08T11:50:53.857Z,1009.4
2022-08-08T11:51:55.816Z,1009.4
2022-08-08T11:52:57.775Z,1009.4
2022-08-08T11:54:01.412Z,1009.4
2022-08-08T11:55:00.800Z,1009.4
2022-08-08T11:56:01.748Z,1009.5
2022-08-08T11:57:03.235Z,1009.4
2022-08-08T11:58:08.604Z,1009.4
2022-08-08T11:59:05.718Z,1009.4
2022-08-08T12:00:06.954Z,1009.4
2022-08-08T12:01:12.434Z,1009.4
2022-08-08T12:02:30.827Z,1009.4
2022-08-08T12:03:11.913Z,1009.4
2022-08-08T12:04:12.783Z,1009.4
2022-08-08T12:05:13.987Z,1009.4
2022-08-08T12:06:14.814Z,1009.4
2022-08-08T12:07:16.876Z,1009.4
2022-08-08T12:08:17.794Z,1009.4
2022-08-08T12:09:19.065Z,1009.5
2022-08-08T12:10:19.814Z,1009.5
2022-08-08T12:11:23.337Z,1009.4
2022-08-08T12:12:22.446Z,1009.4
2022-08-08T12:13:33.616Z,1009.2
2022-08-08T12:14:23.794Z,1009.4
2022-08-08T12:15:24.815Z,1009.5
2022-08-08T12:16:28.305Z,1009.5
2022-08-08T12:17:26.895Z,1009.3
2022-08-08T12:18:28.605Z,1009.5
2022-08-08T12:19:31.409Z,1009.5
2022-08-08T12:20:29.923Z,1009.5
2022-08-08T12:21:59.038Z,1009.5
2022-08-08T12:22:39.660Z,1009.5
2022-08-08T12:23:40.595Z,1009.4
2022-08-08T12:24:33.775Z,1009.4
2022-08-08T12:25:38.355Z,1009.4
2022-08-08T12:26:36.818Z,1009.4
2022-08-08T12:27:43.441Z,1009.4
2022-08-08T12:28:38.774Z,1009.4
2022-08-08T12:29:41.112Z,1009.3
2022-08-08T12:30:40.854Z,1009.4
2022-08-08T12:31:53.127Z,1009.3
2022-08-08T12:32:42.795Z,1009.3
2022-08-08T12:34:01.744Z,1009.3
2022-08-08T12:34:44.910Z,1009.3
2022-08-08T12:35:51.869Z,1009.3
2022-08-08T12:36:49.128Z,1008.8
2022-08-08T12:38:01.017Z,1009.2
2022-08-08T12:38:48.776Z,1009.2
2022-08-08T12:39:59.900Z,1009.2
2022-08-08T12:40:54.600Z,1009.2
2022-08-08T12:41:57.639Z,1009.2
2022-08-08T12:42:53.125Z,1009.2
2022-08-08T12:44:00.265Z,1009.2
2022-08-08T12:44:54.774Z,1009.2
2022-08-08T12:45:59.064Z,1009.3
2022-08-08T12:47:00.289Z,1009.3
2022-08-08T12:47:58.846Z,1009.3
2022-08-08T12:49:22.476Z,1009.3